sensor_id;sensor_type;location;lat;lon;timestamp;P1;durP1;ratioP1;P2;durP2;ratioP2
66739;SDS011;53653;52.188;8.602;2024-01-07T00:02:13;13.97;;;6.40;;
66739;SDS011;53653;52.188;8.602;2024-01-07T00:04:39;20.23;;;7.70;;
66739;SDS011;53653;52.188;8.602;2024-01-07T00:07:05;18.73;;;8.75;;
66739;SDS011;53653;52.188;8.602;2024-01-07T00:09:31;14.90;;;6.90;;
66739;SDS011;53653;52.188;8.602;2024-01-07T00:11:56;21.30;;;7.93;;
66739;SDS011;53653;52.188;8.602;2024-01-07T00:14:22;18.93;;;8.83;;
66739;SDS011;53653;52.188;8.602;2024-01-07T00:16:48;19.67;;;9.40;;
66739;SDS011;53653;52.188;8.602;2024-01-07T00:19:13;17.97;;;7.60;;
66739;SDS011;53653;52.188;8.602;2024-01-07T00:21:39;17.60;;;8.15;;
66739;SDS011;53653;52.188;8.602;2024-01-07T00:24:05;18.37;;;8.00;;
66739;SDS011;53653;52.188;8.602;2024-01-07T00:26:30;19.98;;;7.95;;
66739;SDS011;53653;52.188;8.602;2024-01-07T00:28:56;16.53;;;8.00;;
66739;SDS011;53653;52.188;8.602;2024-01-07T00:31:22;22.05;;;8.48;;
66739;SDS011;53653;52.188;8.602;2024-01-07T00:33:47;18.00;;;7.33;;
66739;SDS011;53653;52.188;8.602;2024-01-07T00:36:13;19.20;;;8.40;;
66739;SDS011;53653;52.188;8.602;2024-01-07T00:38:39;16.30;;;7.90;;
66739;SDS011;53653;52.188;8.602;2024-01-07T00:41:04;19.08;;;8.95;;
66739;SDS011;53653;52.188;8.602;2024-01-07T00:43:30;21.27;;;8.30;;
66739;SDS011;53653;52.188;8.602;2024-01-07T00:45:55;18.57;;;8.93;;
66739;SDS011;53653;52.188;8.602;2024-01-07T00:48:21;15.48;;;8.02;;
66739;SDS011;53653;52.188;8.602;2024-01-07T00:50:46;18.27;;;8.30;;
66739;SDS011;53653;52.188;8.602;2024-01-07T00:53:12;16.23;;;6.77;;
66739;SDS011;53653;52.188;8.602;2024-01-07T00:55:38;20.33;;;8.77;;
66739;SDS011;53653;52.188;8.602;2024-01-07T00:58:03;15.67;;;7.47;;
66739;SDS011;53653;52.188;8.602;2024-01-07T01:00:29;20.42;;;8.25;;
66739;SDS011;53653;52.188;8.602;2024-01-07T01:02:55;19.03;;;8.30;;
66739;SDS011;53653;52.188;8.602;2024-01-07T01:05:21;17.88;;;6.30;;
66739;SDS011;53653;52.188;8.602;2024-01-07T01:07:46;19.73;;;9.17;;
66739;SDS011;53653;52.188;8.602;2024-01-07T01:10:12;18.20;;;7.75;;
66739;SDS011;53653;52.188;8.602;2024-01-07T01:12:40;19.98;;;8.45;;
66739;SDS011;53653;52.188;8.602;2024-01-07T01:15:05;16.73;;;7.03;;
66739;SDS011;53653;52.188;8.602;2024-01-07T01:17:31;17.45;;;7.43;;
66739;SDS011;53653;52.188;8.602;2024-01-07T01:19:57;20.50;;;6.83;;
66739;SDS011;53653;52.188;8.602;2024-01-07T01:22:22;19.07;;;7.60;;
66739;SDS011;53653;52.188;8.602;2024-01-07T01:24:48;19.27;;;8.43;;
66739;SDS011;53653;52.188;8.602;2024-01-07T01:27:14;12.43;;;5.40;;
66739;SDS011;53653;52.188;8.602;2024-01-07T01:29:40;20.47;;;8.87;;
66739;SDS011;53653;52.188;8.602;2024-01-07T01:32:06;17.52;;;7.32;;
66739;SDS011;53653;52.188;8.602;2024-01-07T01:34:32;19.00;;;7.25;;
66739;SDS011;53653;52.188;8.602;2024-01-07T01:36:58;19.33;;;8.97;;
66739;SDS011;53653;52.188;8.602;2024-01-07T01:39:23;18.00;;;7.57;;
66739;SDS011;53653;52.188;8.602;2024-01-07T01:41:49;18.67;;;8.90;;
66739;SDS011;53653;52.188;8.602;2024-01-07T01:44:15;18.95;;;8.52;;
66739;SDS011;53653;52.188;8.602;2024-01-07T01:46:40;19.63;;;8.60;;
66739;SDS011;53653;52.188;8.602;2024-01-07T01:49:06;23.27;;;8.50;;
66739;SDS011;53653;52.188;8.602;2024-01-07T01:51:33;15.90;;;7.13;;
66739;SDS011;53653;52.188;8.602;2024-01-07T01:53:59;16.42;;;6.55;;
66739;SDS011;53653;52.188;8.602;2024-01-07T01:56:26;20.13;;;8.68;;
66739;SDS011;53653;52.188;8.602;2024-01-07T01:58:52;16.67;;;7.88;;
66739;SDS011;53653;52.188;8.602;2024-01-07T02:01:18;16.10;;;5.67;;
66739;SDS011;53653;52.188;8.602;2024-01-07T02:03:44;20.33;;;9.02;;
66739;SDS011;53653;52.188;8.602;2024-01-07T02:06:10;17.23;;;7.33;;
66739;SDS011;53653;52.188;8.602;2024-01-07T02:08:40;23.02;;;10.05;;
66739;SDS011;53653;52.188;8.602;2024-01-07T02:13:44;25.13;;;10.32;;
66739;SDS011;53653;52.188;8.602;2024-01-07T02:16:10;23.70;;;10.67;;
66739;SDS011;53653;52.188;8.602;2024-01-07T02:18:37;19.33;;;8.07;;
66739;SDS011;53653;52.188;8.602;2024-01-07T02:21:06;22.65;;;10.27;;
66739;SDS011;53653;52.188;8.602;2024-01-07T02:23:32;17.10;;;7.35;;
66739;SDS011;53653;52.188;8.602;2024-01-07T02:25:58;21.87;;;9.57;;
66739;SDS011;53653;52.188;8.602;2024-01-07T02:28:23;20.95;;;9.52;;
66739;SDS011;53653;52.188;8.602;2024-01-07T02:30:49;16.77;;;8.47;;
66739;SDS011;53653;52.188;8.602;2024-01-07T02:33:15;21.77;;;9.70;;
66739;SDS011;53653;52.188;8.602;2024-01-07T02:35:40;20.05;;;9.57;;
66739;SDS011;53653;52.188;8.602;2024-01-07T02:38:06;20.03;;;8.47;;
66739;SDS011;53653;52.188;8.602;2024-01-07T02:40:31;19.50;;;9.23;;
66739;SDS011;53653;52.188;8.602;2024-01-07T02:42:57;21.67;;;9.80;;
66739;SDS011;53653;52.188;8.602;2024-01-07T02:45:23;21.38;;;8.75;;
66739;SDS011;53653;52.188;8.602;2024-01-07T02:47:49;20.50;;;9.03;;
66739;SDS011;53653;52.188;8.602;2024-01-07T02:50:15;23.10;;;9.63;;
66739;SDS011;53653;52.188;8.602;2024-01-07T02:52:41;18.30;;;8.55;;
66739;SDS011;53653;52.188;8.602;2024-01-07T02:55:07;14.37;;;7.10;;
66739;SDS011;53653;52.188;8.602;2024-01-07T02:57:33;16.88;;;7.93;;
66739;SDS011;53653;52.188;8.602;2024-01-07T02:59:59;21.77;;;8.77;;
66739;SDS011;53653;52.188;8.602;2024-01-07T03:02:24;21.27;;;7.70;;
66739;SDS011;53653;52.188;8.602;2024-01-07T03:04:50;11.20;;;5.47;;
66739;SDS011;53653;52.188;8.602;2024-01-07T03:07:15;20.98;;;8.20;;
66739;SDS011;53653;52.188;8.602;2024-01-07T03:09:41;17.73;;;7.63;;
66739;SDS011;53653;52.188;8.602;2024-01-07T03:12:07;16.97;;;8.20;;
66739;SDS011;53653;52.188;8.602;2024-01-07T03:14:32;17.23;;;7.18;;
66739;SDS011;53653;52.188;8.602;2024-01-07T03:16:58;20.23;;;9.23;;
66739;SDS011;53653;52.188;8.602;2024-01-07T03:19:23;18.15;;;7.13;;
66739;SDS011;53653;52.188;8.602;2024-01-07T03:21:49;18.40;;;8.17;;
66739;SDS011;53653;52.188;8.602;2024-01-07T03:24:15;18.10;;;7.70;;
66739;SDS011;53653;52.188;8.602;2024-01-07T03:26:41;18.67;;;7.63;;
66739;SDS011;53653;52.188;8.602;2024-01-07T03:29:06;14.68;;;6.50;;
66739;SDS011;53653;52.188;8.602;2024-01-07T03:31:32;19.40;;;7.57;;
66739;SDS011;53653;52.188;8.602;2024-01-07T03:33:58;20.00;;;7.88;;
66739;SDS011;53653;52.188;8.602;2024-01-07T03:36:23;14.97;;;5.57;;
66739;SDS011;53653;52.188;8.602;2024-01-07T03:38:49;14.50;;;6.07;;
66739;SDS011;53653;52.188;8.602;2024-01-07T03:41:15;19.03;;;8.80;;
66739;SDS011;53653;52.188;8.602;2024-01-07T03:43:43;22.70;;;8.60;;
66739;SDS011;53653;52.188;8.602;2024-01-07T03:46:08;19.87;;;8.97;;
66739;SDS011;53653;52.188;8.602;2024-01-07T03:48:34;16.23;;;6.55;;
66739;SDS011;53653;52.188;8.602;2024-01-07T03:50:59;17.40;;;6.97;;
66739;SDS011;53653;52.188;8.602;2024-01-07T03:53:25;21.63;;;8.33;;
66739;SDS011;53653;52.188;8.602;2024-01-07T03:55:51;21.25;;;8.60;;
66739;SDS011;53653;52.188;8.602;2024-01-07T03:58:16;17.17;;;8.47;;
66739;SDS011;53653;52.188;8.602;2024-01-07T04:00:42;22.10;;;9.93;;
66739;SDS011;53653;52.188;8.602;2024-01-07T04:03:07;20.63;;;6.80;;
66739;SDS011;53653;52.188;8.602;2024-01-07T04:05:33;23.33;;;8.47;;
66739;SDS011;53653;52.188;8.602;2024-01-07T04:08:02;18.77;;;7.72;;
66739;SDS011;53653;52.188;8.602;2024-01-07T04:10:27;20.50;;;7.95;;
66739;SDS011;53653;52.188;8.602;2024-01-07T04:12:53;21.10;;;8.90;;
66739;SDS011;53653;52.188;8.602;2024-01-07T04:15:19;17.57;;;7.80;;
66739;SDS011;53653;52.188;8.602;2024-01-07T04:17:45;21.00;;;7.80;;
66739;SDS011;53653;52.188;8.602;2024-01-07T04:20:14;16.50;;;7.97;;
66739;SDS011;53653;52.188;8.602;2024-01-07T04:22:39;16.42;;;8.10;;
66739;SDS011;53653;52.188;8.602;2024-01-07T04:25:05;13.97;;;6.27;;
66739;SDS011;53653;52.188;8.602;2024-01-07T04:27:35;19.83;;;9.32;;
66739;SDS011;53653;52.188;8.602;2024-01-07T04:30:01;20.63;;;9.05;;
66739;SDS011;53653;52.188;8.602;2024-01-07T04:32:27;14.13;;;6.80;;
66739;SDS011;53653;52.188;8.602;2024-01-07T04:34:53;15.53;;;6.47;;
66739;SDS011;53653;52.188;8.602;2024-01-07T04:37:19;15.60;;;7.53;;
66739;SDS011;53653;52.188;8.602;2024-01-07T04:39:44;19.63;;;7.50;;
66739;SDS011;53653;52.188;8.602;2024-01-07T04:42:10;14.98;;;6.00;;
66739;SDS011;53653;52.188;8.602;2024-01-07T04:44:36;16.63;;;6.87;;
66739;SDS011;53653;52.188;8.602;2024-01-07T04:47:02;16.15;;;7.47;;
66739;SDS011;53653;52.188;8.602;2024-01-07T04:49:27;14.83;;;6.40;;
66739;SDS011;53653;52.188;8.602;2024-01-07T04:51:53;16.67;;;6.90;;
66739;SDS011;53653;52.188;8.602;2024-01-07T04:54:19;14.07;;;5.53;;
66739;SDS011;53653;52.188;8.602;2024-01-07T04:56:44;13.80;;;6.47;;
66739;SDS011;53653;52.188;8.602;2024-01-07T04:59:10;8.80;;;4.47;;
66739;SDS011;53653;52.188;8.602;2024-01-07T05:01:35;15.03;;;6.20;;
66739;SDS011;53653;52.188;8.602;2024-01-07T05:04:04;16.17;;;6.28;;
66739;SDS011;53653;52.188;8.602;2024-01-07T05:06:29;13.48;;;6.00;;
66739;SDS011;53653;52.188;8.602;2024-01-07T05:08:55;16.67;;;7.50;;
66739;SDS011;53653;52.188;8.602;2024-01-07T05:11:20;13.87;;;6.30;;
66739;SDS011;53653;52.188;8.602;2024-01-07T05:13:46;14.10;;;6.38;;
66739;SDS011;53653;52.188;8.602;2024-01-07T05:16:21;11.17;;;5.97;;
66739;SDS011;53653;52.188;8.602;2024-01-07T05:18:46;12.65;;;5.82;;
66739;SDS011;53653;52.188;8.602;2024-01-07T05:21:18;15.48;;;6.68;;
66739;SDS011;53653;52.188;8.602;2024-01-07T05:23:44;12.38;;;5.78;;
66739;SDS011;53653;52.188;8.602;2024-01-07T05:26:09;14.13;;;6.83;;
66739;SDS011;53653;52.188;8.602;2024-01-07T05:28:36;10.60;;;4.77;;
66739;SDS011;53653;52.188;8.602;2024-01-07T05:31:02;15.60;;;6.10;;
66739;SDS011;53653;52.188;8.602;2024-01-07T05:33:27;11.68;;;6.28;;
66739;SDS011;53653;52.188;8.602;2024-01-07T05:35:53;14.00;;;6.13;;
66739;SDS011;53653;52.188;8.602;2024-01-07T05:38:18;10.47;;;4.90;;
66739;SDS011;53653;52.188;8.602;2024-01-07T05:40:44;12.52;;;5.53;;
66739;SDS011;53653;52.188;8.602;2024-01-07T05:43:10;13.63;;;7.17;;
66739;SDS011;53653;52.188;8.602;2024-01-07T05:45:35;13.23;;;5.93;;
66739;SDS011;53653;52.188;8.602;2024-01-07T05:48:01;11.10;;;5.17;;
66739;SDS011;53653;52.188;8.602;2024-01-07T05:50:26;11.47;;;5.60;;
66739;SDS011;53653;52.188;8.602;2024-01-07T05:52:52;14.73;;;5.57;;
66739;SDS011;53653;52.188;8.602;2024-01-07T05:55:17;11.17;;;5.60;;
66739;SDS011;53653;52.188;8.602;2024-01-07T05:57:43;12.77;;;5.97;;
66739;SDS011;53653;52.188;8.602;2024-01-07T06:00:09;13.43;;;5.78;;
66739;SDS011;53653;52.188;8.602;2024-01-07T06:02:38;10.10;;;4.60;;
66739;SDS011;53653;52.188;8.602;2024-01-07T06:05:05;14.98;;;5.75;;
66739;SDS011;53653;52.188;8.602;2024-01-07T06:07:30;15.17;;;5.60;;
66739;SDS011;53653;52.188;8.602;2024-01-07T06:09:56;12.60;;;5.30;;
66739;SDS011;53653;52.188;8.602;2024-01-07T06:12:22;12.63;;;5.17;;
66739;SDS011;53653;52.188;8.602;2024-01-07T06:14:47;13.13;;;6.07;;
66739;SDS011;53653;52.188;8.602;2024-01-07T06:17:13;9.63;;;5.20;;
66739;SDS011;53653;52.188;8.602;2024-01-07T06:19:39;10.67;;;5.13;;
66739;SDS011;53653;52.188;8.602;2024-01-07T06:22:04;10.05;;;5.22;;
66739;SDS011;53653;52.188;8.602;2024-01-07T06:24:30;10.83;;;4.73;;
66739;SDS011;53653;52.188;8.602;2024-01-07T06:26:56;11.57;;;4.97;;
66739;SDS011;53653;52.188;8.602;2024-01-07T06:29:21;10.03;;;4.23;;
66739;SDS011;53653;52.188;8.602;2024-01-07T06:31:47;10.83;;;4.80;;
66739;SDS011;53653;52.188;8.602;2024-01-07T06:34:14;9.07;;;4.43;;
66739;SDS011;53653;52.188;8.602;2024-01-07T06:36:40;13.60;;;4.20;;
66739;SDS011;53653;52.188;8.602;2024-01-07T06:39:09;9.35;;;4.55;;
66739;SDS011;53653;52.188;8.602;2024-01-07T06:41:35;10.73;;;5.03;;
66739;SDS011;53653;52.188;8.602;2024-01-07T06:44:01;10.47;;;5.13;;
66739;SDS011;53653;52.188;8.602;2024-01-07T06:46:27;9.20;;;3.92;;
66739;SDS011;53653;52.188;8.602;2024-01-07T06:48:53;12.17;;;4.23;;
66739;SDS011;53653;52.188;8.602;2024-01-07T06:51:19;10.38;;;4.72;;
66739;SDS011;53653;52.188;8.602;2024-01-07T06:53:44;12.83;;;4.97;;
66739;SDS011;53653;52.188;8.602;2024-01-07T06:56:10;10.13;;;5.50;;
66739;SDS011;53653;52.188;8.602;2024-01-07T06:58:35;10.73;;;4.33;;
66739;SDS011;53653;52.188;8.602;2024-01-07T07:01:01;11.50;;;5.07;;
66739;SDS011;53653;52.188;8.602;2024-01-07T07:03:27;9.07;;;4.30;;
66739;SDS011;53653;52.188;8.602;2024-01-07T07:05:53;11.07;;;4.53;;
66739;SDS011;53653;52.188;8.602;2024-01-07T07:08:19;9.53;;;4.13;;
66739;SDS011;53653;52.188;8.602;2024-01-07T07:10:44;10.27;;;4.93;;
66739;SDS011;53653;52.188;8.602;2024-01-07T07:13:11;10.13;;;5.83;;
66739;SDS011;53653;52.188;8.602;2024-01-07T07:15:37;9.05;;;4.70;;
66739;SDS011;53653;52.188;8.602;2024-01-07T07:18:02;9.70;;;4.10;;
66739;SDS011;53653;52.188;8.602;2024-01-07T07:20:28;9.05;;;4.18;;
66739;SDS011;53653;52.188;8.602;2024-01-07T07:22:54;11.77;;;5.33;;
66739;SDS011;53653;52.188;8.602;2024-01-07T07:25:19;11.53;;;4.20;;
66739;SDS011;53653;52.188;8.602;2024-01-07T07:27:45;10.37;;;4.50;;
66739;SDS011;53653;52.188;8.602;2024-01-07T07:30:10;11.00;;;4.35;;
66739;SDS011;53653;52.188;8.602;2024-01-07T07:32:38;8.60;;;3.93;;
66739;SDS011;53653;52.188;8.602;2024-01-07T07:35:05;14.25;;;6.40;;
66739;SDS011;53653;52.188;8.602;2024-01-07T07:37:32;8.98;;;4.20;;
66739;SDS011;53653;52.188;8.602;2024-01-07T07:39:58;10.60;;;4.17;;
66739;SDS011;53653;52.188;8.602;2024-01-07T07:42:23;9.55;;;4.13;;
66739;SDS011;53653;52.188;8.602;2024-01-07T07:44:49;7.87;;;3.20;;
66739;SDS011;53653;52.188;8.602;2024-01-07T07:47:14;11.27;;;4.37;;
66739;SDS011;53653;52.188;8.602;2024-01-07T07:49:40;8.25;;;3.65;;
66739;SDS011;53653;52.188;8.602;2024-01-07T07:52:09;8.60;;;4.10;;
66739;SDS011;53653;52.188;8.602;2024-01-07T07:54:36;9.45;;;4.15;;
66739;SDS011;53653;52.188;8.602;2024-01-07T07:57:02;6.65;;;3.35;;
66739;SDS011;53653;52.188;8.602;2024-01-07T07:59:28;12.27;;;3.93;;
66739;SDS011;53653;52.188;8.602;2024-01-07T08:01:54;9.80;;;4.30;;
66739;SDS011;53653;52.188;8.602;2024-01-07T08:04:20;9.70;;;4.43;;
66739;SDS011;53653;52.188;8.602;2024-01-07T08:06:45;7.40;;;3.70;;
66739;SDS011;53653;52.188;8.602;2024-01-07T08:09:11;12.33;;;3.67;;
66739;SDS011;53653;52.188;8.602;2024-01-07T08:11:36;10.70;;;4.13;;
66739;SDS011;53653;52.188;8.602;2024-01-07T08:14:02;10.30;;;3.80;;
66739;SDS011;53653;52.188;8.602;2024-01-07T08:16:27;8.87;;;4.00;;
66739;SDS011;53653;52.188;8.602;2024-01-07T08:18:53;9.90;;;4.28;;
66739;SDS011;53653;52.188;8.602;2024-01-07T08:21:22;7.17;;;3.40;;
66739;SDS011;53653;52.188;8.602;2024-01-07T08:23:50;9.98;;;3.92;;
66739;SDS011;53653;52.188;8.602;2024-01-07T08:26:19;9.48;;;3.95;;
66739;SDS011;53653;52.188;8.602;2024-01-07T08:28:45;10.37;;;4.33;;
66739;SDS011;53653;52.188;8.602;2024-01-07T08:31:10;9.23;;;3.75;;
66739;SDS011;53653;52.188;8.602;2024-01-07T08:33:36;8.35;;;3.90;;
66739;SDS011;53653;52.188;8.602;2024-01-07T08:36:02;8.37;;;3.77;;
66739;SDS011;53653;52.188;8.602;2024-01-07T08:38:27;8.33;;;3.70;;
66739;SDS011;53653;52.188;8.602;2024-01-07T08:40:53;8.65;;;3.53;;
66739;SDS011;53653;52.188;8.602;2024-01-07T08:43:19;8.17;;;3.43;;
66739;SDS011;53653;52.188;8.602;2024-01-07T08:45:44;7.13;;;3.40;;
66739;SDS011;53653;52.188;8.602;2024-01-07T08:48:10;7.73;;;3.40;;
66739;SDS011;53653;52.188;8.602;2024-01-07T08:50:37;7.45;;;3.38;;
66739;SDS011;53653;52.188;8.602;2024-01-07T08:53:03;8.13;;;3.80;;
66739;SDS011;53653;52.188;8.602;2024-01-07T08:55:29;8.95;;;3.55;;
66739;SDS011;53653;52.188;8.602;2024-01-07T08:57:54;8.03;;;3.27;;
66739;SDS011;53653;52.188;8.602;2024-01-07T09:00:20;8.65;;;3.92;;
66739;SDS011;53653;52.188;8.602;2024-01-07T09:02:51;7.27;;;2.83;;
66739;SDS011;53653;52.188;8.602;2024-01-07T09:05:17;9.15;;;4.03;;
66739;SDS011;53653;52.188;8.602;2024-01-07T09:07:43;8.27;;;3.50;;
66739;SDS011;53653;52.188;8.602;2024-01-07T09:10:08;10.43;;;3.00;;
66739;SDS011;53653;52.188;8.602;2024-01-07T09:12:38;6.75;;;3.35;;
66739;SDS011;53653;52.188;8.602;2024-01-07T09:15:04;7.80;;;3.50;;
66739;SDS011;53653;52.188;8.602;2024-01-07T09:17:37;12.48;;;3.88;;
66739;SDS011;53653;52.188;8.602;2024-01-07T09:20:08;9.70;;;4.10;;
66739;SDS011;53653;52.188;8.602;2024-01-07T09:22:35;8.50;;;3.08;;
66739;SDS011;53653;52.188;8.602;2024-01-07T09:25:05;10.85;;;3.65;;
66739;SDS011;53653;52.188;8.602;2024-01-07T09:27:31;9.90;;;4.35;;
66739;SDS011;53653;52.188;8.602;2024-01-07T09:29:58;7.50;;;4.00;;
66739;SDS011;53653;52.188;8.602;2024-01-07T09:32:24;10.77;;;4.33;;
66739;SDS011;53653;52.188;8.602;2024-01-07T09:34:50;7.97;;;3.88;;
66739;SDS011;53653;52.188;8.602;2024-01-07T09:37:16;10.03;;;4.20;;
66739;SDS011;53653;52.188;8.602;2024-01-07T09:39:42;10.33;;;3.73;;
66739;SDS011;53653;52.188;8.602;2024-01-07T09:42:12;8.95;;;4.10;;
66739;SDS011;53653;52.188;8.602;2024-01-07T09:44:39;9.70;;;4.55;;
66739;SDS011;53653;52.188;8.602;2024-01-07T09:47:05;9.32;;;3.92;;
66739;SDS011;53653;52.188;8.602;2024-01-07T09:49:35;11.00;;;4.55;;
66739;SDS011;53653;52.188;8.602;2024-01-07T09:52:00;9.67;;;4.47;;
66739;SDS011;53653;52.188;8.602;2024-01-07T09:54:29;9.30;;;4.10;;
66739;SDS011;53653;52.188;8.602;2024-01-07T09:57:01;7.57;;;3.95;;
66739;SDS011;53653;52.188;8.602;2024-01-07T09:59:30;7.50;;;3.57;;
66739;SDS011;53653;52.188;8.602;2024-01-07T10:01:56;9.45;;;3.67;;
66739;SDS011;53653;52.188;8.602;2024-01-07T10:04:23;10.63;;;5.30;;
66739;SDS011;53653;52.188;8.602;2024-01-07T10:06:49;8.48;;;3.85;;
66739;SDS011;53653;52.188;8.602;2024-01-07T10:09:17;11.97;;;5.33;;
66739;SDS011;53653;52.188;8.602;2024-01-07T10:11:44;7.15;;;3.00;;
66739;SDS011;53653;52.188;8.602;2024-01-07T10:14:09;10.07;;;3.87;;
66739;SDS011;53653;52.188;8.602;2024-01-07T10:16:35;7.30;;;3.00;;
66739;SDS011;53653;52.188;8.602;2024-01-07T10:19:01;11.77;;;4.32;;
66739;SDS011;53653;52.188;8.602;2024-01-07T10:21:26;7.77;;;3.23;;
66739;SDS011;53653;52.188;8.602;2024-01-07T10:24:08;11.03;;;5.03;;
66739;SDS011;53653;52.188;8.602;2024-01-07T10:26:35;10.15;;;5.20;;
66739;SDS011;53653;52.188;8.602;2024-01-07T10:29:02;9.05;;;3.97;;
66739;SDS011;53653;52.188;8.602;2024-01-07T10:31:27;9.33;;;4.60;;
66739;SDS011;53653;52.188;8.602;2024-01-07T10:33:53;9.13;;;3.80;;
66739;SDS011;53653;52.188;8.602;2024-01-07T10:36:18;7.10;;;3.23;;
66739;SDS011;53653;52.188;8.602;2024-01-07T10:38:45;7.18;;;3.38;;
66739;SDS011;53653;52.188;8.602;2024-01-07T10:41:11;8.70;;;3.35;;
66739;SDS011;53653;52.188;8.602;2024-01-07T10:43:38;7.07;;;3.40;;
66739;SDS011;53653;52.188;8.602;2024-01-07T10:46:04;10.95;;;3.83;;
66739;SDS011;53653;52.188;8.602;2024-01-07T10:48:30;6.93;;;3.35;;
66739;SDS011;53653;52.188;8.602;2024-01-07T10:51:00;11.23;;;4.10;;
66739;SDS011;53653;52.188;8.602;2024-01-07T10:53:26;9.20;;;4.00;;
66739;SDS011;53653;52.188;8.602;2024-01-07T10:56:03;10.13;;;4.03;;
66739;SDS011;53653;52.188;8.602;2024-01-07T10:58:32;12.88;;;4.60;;
66739;SDS011;53653;52.188;8.602;2024-01-07T11:01:01;10.00;;;3.45;;
66739;SDS011;53653;52.188;8.602;2024-01-07T11:06:33;10.27;;;3.67;;
66739;SDS011;53653;52.188;8.602;2024-01-07T11:09:18;7.25;;;3.30;;
66739;SDS011;53653;52.188;8.602;2024-01-07T11:11:46;9.15;;;3.53;;
66739;SDS011;53653;52.188;8.602;2024-01-07T11:17:10;9.52;;;3.83;;
66739;SDS011;53653;52.188;8.602;2024-01-07T11:19:36;7.15;;;3.80;;
66739;SDS011;53653;52.188;8.602;2024-01-07T11:22:21;9.85;;;2.65;;
66739;SDS011;53653;52.188;8.602;2024-01-07T11:24:47;8.15;;;3.47;;
66739;SDS011;53653;52.188;8.602;2024-01-07T11:27:13;7.93;;;3.60;;
66739;SDS011;53653;52.188;8.602;2024-01-07T11:29:41;7.82;;;2.92;;
66739;SDS011;53653;52.188;8.602;2024-01-07T11:32:06;10.20;;;3.90;;
66739;SDS011;53653;52.188;8.602;2024-01-07T11:34:38;6.83;;;3.20;;
66739;SDS011;53653;52.188;8.602;2024-01-07T11:37:11;8.40;;;2.95;;
66739;SDS011;53653;52.188;8.602;2024-01-07T11:39:45;8.15;;;3.65;;
66739;SDS011;53653;52.188;8.602;2024-01-07T11:42:11;8.82;;;3.15;;
66739;SDS011;53653;52.188;8.602;2024-01-07T11:44:37;9.47;;;4.20;;
66739;SDS011;53653;52.188;8.602;2024-01-07T11:47:05;10.10;;;3.80;;
66739;SDS011;53653;52.188;8.602;2024-01-07T11:49:34;8.65;;;3.45;;
66739;SDS011;53653;52.188;8.602;2024-01-07T11:51:59;7.50;;;3.90;;
66739;SDS011;53653;52.188;8.602;2024-01-07T11:54:26;7.47;;;3.35;;
66739;SDS011;53653;52.188;8.602;2024-01-07T11:56:52;8.50;;;4.00;;
66739;SDS011;53653;52.188;8.602;2024-01-07T11:59:18;9.43;;;3.80;;
66739;SDS011;53653;52.188;8.602;2024-01-07T12:01:44;7.63;;;3.38;;
66739;SDS011;53653;52.188;8.602;2024-01-07T12:04:09;8.30;;;3.63;;
66739;SDS011;53653;52.188;8.602;2024-01-07T12:06:35;8.13;;;3.53;;
66739;SDS011;53653;52.188;8.602;2024-01-07T12:09:01;6.82;;;3.15;;
66739;SDS011;53653;52.188;8.602;2024-01-07T12:11:26;8.43;;;2.90;;
66739;SDS011;53653;52.188;8.602;2024-01-07T12:13:52;8.43;;;3.13;;
66739;SDS011;53653;52.188;8.602;2024-01-07T12:16:17;5.90;;;2.70;;
66739;SDS011;53653;52.188;8.602;2024-01-07T12:18:43;6.78;;;2.45;;
66739;SDS011;53653;52.188;8.602;2024-01-07T12:21:08;7.70;;;3.07;;
66739;SDS011;53653;52.188;8.602;2024-01-07T12:23:37;7.00;;;3.07;;
66739;SDS011;53653;52.188;8.602;2024-01-07T12:26:11;6.65;;;2.63;;
66739;SDS011;53653;52.188;8.602;2024-01-07T12:28:37;9.65;;;3.35;;
66739;SDS011;53653;52.188;8.602;2024-01-07T12:31:04;8.90;;;3.95;;
66739;SDS011;53653;52.188;8.602;2024-01-07T12:33:30;6.77;;;2.90;;
66739;SDS011;53653;52.188;8.602;2024-01-07T12:35:56;10.27;;;3.30;;
66739;SDS011;53653;52.188;8.602;2024-01-07T12:38:25;5.35;;;2.08;;
66739;SDS011;53653;52.188;8.602;2024-01-07T12:40:54;8.13;;;2.88;;
66739;SDS011;53653;52.188;8.602;2024-01-07T12:43:20;6.72;;;2.90;;
66739;SDS011;53653;52.188;8.602;2024-01-07T12:45:49;7.53;;;2.70;;
66739;SDS011;53653;52.188;8.602;2024-01-07T12:48:15;6.88;;;3.03;;
66739;SDS011;53653;52.188;8.602;2024-01-07T12:50:40;9.20;;;3.00;;
66739;SDS011;53653;52.188;8.602;2024-01-07T12:53:06;7.90;;;3.88;;
66739;SDS011;53653;52.188;8.602;2024-01-07T12:55:31;6.87;;;2.60;;
66739;SDS011;53653;52.188;8.602;2024-01-07T12:57:57;7.32;;;3.03;;
66739;SDS011;53653;52.188;8.602;2024-01-07T13:00:26;7.47;;;3.03;;
66739;SDS011;53653;52.188;8.602;2024-01-07T13:02:53;5.20;;;2.33;;
66739;SDS011;53653;52.188;8.602;2024-01-07T13:05:19;6.60;;;2.30;;
66739;SDS011;53653;52.188;8.602;2024-01-07T13:07:45;4.63;;;2.13;;
66739;SDS011;53653;52.188;8.602;2024-01-07T13:10:11;7.07;;;2.80;;
66739;SDS011;53653;52.188;8.602;2024-01-07T13:12:37;5.93;;;2.07;;
66739;SDS011;53653;52.188;8.602;2024-01-07T13:15:03;8.30;;;2.60;;
66739;SDS011;53653;52.188;8.602;2024-01-07T13:17:29;7.70;;;2.38;;
66739;SDS011;53653;52.188;8.602;2024-01-07T13:19:58;8.50;;;3.35;;
66739;SDS011;53653;52.188;8.602;2024-01-07T13:22:24;8.87;;;3.33;;
66739;SDS011;53653;52.188;8.602;2024-01-07T13:24:50;7.15;;;2.58;;
66739;SDS011;53653;52.188;8.602;2024-01-07T13:27:15;7.13;;;2.90;;
66739;SDS011;53653;52.188;8.602;2024-01-07T13:29:43;11.25;;;4.50;;
66739;SDS011;53653;52.188;8.602;2024-01-07T13:32:10;7.68;;;3.60;;
66739;SDS011;53653;52.188;8.602;2024-01-07T13:34:36;14.50;;;4.03;;
66739;SDS011;53653;52.188;8.602;2024-01-07T13:37:01;5.20;;;2.30;;
66739;SDS011;53653;52.188;8.602;2024-01-07T13:39:28;9.60;;;3.55;;
66739;SDS011;53653;52.188;8.602;2024-01-07T13:41:55;6.80;;;3.13;;
66739;SDS011;53653;52.188;8.602;2024-01-07T13:44:20;7.77;;;2.80;;
66739;SDS011;53653;52.188;8.602;2024-01-07T13:46:46;9.93;;;3.17;;
66739;SDS011;53653;52.188;8.602;2024-01-07T13:49:14;7.22;;;2.70;;
66739;SDS011;53653;52.188;8.602;2024-01-07T13:51:41;6.63;;;2.60;;
66739;SDS011;53653;52.188;8.602;2024-01-07T13:54:07;8.23;;;3.33;;
66739;SDS011;53653;52.188;8.602;2024-01-07T13:56:35;8.37;;;2.53;;
66739;SDS011;53653;52.188;8.602;2024-01-07T13:59:02;8.00;;;3.13;;
66739;SDS011;53653;52.188;8.602;2024-01-07T14:01:28;7.18;;;2.85;;
66739;SDS011;53653;52.188;8.602;2024-01-07T14:03:54;7.07;;;2.87;;
66739;SDS011;53653;52.188;8.602;2024-01-07T14:06:20;7.47;;;3.08;;
66739;SDS011;53653;52.188;8.602;2024-01-07T14:08:46;6.97;;;2.75;;
66739;SDS011;53653;52.188;8.602;2024-01-07T14:11:11;6.20;;;2.20;;
66739;SDS011;53653;52.188;8.602;2024-01-07T14:13:37;8.93;;;3.37;;
66739;SDS011;53653;52.188;8.602;2024-01-07T14:16:02;9.43;;;3.10;;
66739;SDS011;53653;52.188;8.602;2024-01-07T14:18:28;8.03;;;3.10;;
66739;SDS011;53653;52.188;8.602;2024-01-07T14:20:53;7.80;;;2.57;;
66739;SDS011;53653;52.188;8.602;2024-01-07T14:23:19;7.00;;;2.80;;
66739;SDS011;53653;52.188;8.602;2024-01-07T14:25:44;9.50;;;3.23;;
66739;SDS011;53653;52.188;8.602;2024-01-07T14:28:09;5.35;;;2.10;;
66739;SDS011;53653;52.188;8.602;2024-01-07T14:30:36;9.17;;;3.00;;
66739;SDS011;53653;52.188;8.602;2024-01-07T14:33:01;6.53;;;2.87;;
66739;SDS011;53653;52.188;8.602;2024-01-07T14:35:26;5.83;;;2.47;;
66739;SDS011;53653;52.188;8.602;2024-01-07T14:37:54;7.13;;;1.83;;
66739;SDS011;53653;52.188;8.602;2024-01-07T14:40:19;7.37;;;2.30;;
66739;SDS011;53653;52.188;8.602;2024-01-07T14:42:45;7.20;;;2.97;;
66739;SDS011;53653;52.188;8.602;2024-01-07T14:45:10;9.45;;;3.38;;